<?xml version="1.0" encoding="UTF-8"?>
<gpx version="1.1" creator="2bulu-scraper" xmlns="http://www.topografix.com/GPX/1/1">
  <metadata><name>内江椑木镇徒步挑战</name><desc>source: 2bulu.com trackId=83890457; exported 2026-09-01T17:51:54.568Z</desc>
    <bounds minlat="29.50986" minlon="105.0445084" maxlat="29.5319332" maxlon="105.0883066"/>
    <link href="https://www.2bulu.com/track/t-XonYX54cWMLp%252FR2KBg5Tzw%253D%253D.htm"><text>2bulu 源页面</text></link>
  </metadata>
  <wpt lat="29.5129779" lon="105.088173"><ele>264</ele><name>直行
        </name></wpt>
  <wpt lat="29.511499" lon="105.0882186"><ele>257</ele><name>右转
        </name></wpt>
  <wpt lat="29.5110683" lon="105.0877358"><ele>261</ele><name>左转

        </name></wpt>
  <wpt lat="29.5110542" lon="105.0871682"><ele>267</ele><name>左转
        </name></wpt>
  <wpt lat="29.5098613" lon="105.0870749"><ele>279</ele><name>右转
        </name></wpt>
  <wpt lat="29.5100602" lon="105.0857177"><ele>261</ele><name>直行
        </name></wpt>
  <wpt lat="29.5102008" lon="105.0849571"><ele>265</ele><name>直行
        </name></wpt>
  <wpt lat="29.5107311" lon="105.0840722"><ele>272</ele><name>直行
        </name></wpt>
  <wpt lat="29.5110109" lon="105.083748"><ele>268</ele><name>右转
        </name></wpt>
  <wpt lat="29.5110711" lon="105.0836633"><ele>268</ele><name>卫生间
        </name></wpt>
  <wpt lat="29.5119291" lon="105.0840872"><ele>265</ele><name>左转
        </name></wpt>
  <wpt lat="29.5125831" lon="105.0833804"><ele>263</ele><name>右转
        </name></wpt>
  <wpt lat="29.514284" lon="105.08137"><ele>264</ele><name>直行
        </name></wpt>
  <wpt lat="29.517135" lon="105.0797837"><ele>250</ele><name>直行
        </name></wpt>
  <wpt lat="29.5212304" lon="105.0761776"><ele>257</ele><name>左转
        </name></wpt>
  <wpt lat="29.5219571" lon="105.0745453"><ele>265</ele><name>右转
        </name></wpt>
  <wpt lat="29.5222317" lon="105.0746251"><ele>264</ele><name>右转
        </name></wpt>
  <wpt lat="29.5225008" lon="105.0747376"><ele>261</ele><name>右转
        </name></wpt>
  <wpt lat="29.5227787" lon="105.0747786"><ele>256</ele><name>左转
        </name></wpt>
  <wpt lat="29.5242231" lon="105.0673888"><ele>260</ele><name>左转
        </name></wpt>
  <wpt lat="29.5236658" lon="105.0662157"><ele>262</ele><name>右转
        </name></wpt>
  <wpt lat="29.5240837" lon="105.0648969"><ele>260</ele><name>左转
        </name></wpt>
  <wpt lat="29.5239526" lon="105.0637058"><ele>264</ele><name>左转
        </name></wpt>
  <wpt lat="29.5239495" lon="105.0621461"><ele>266</ele><name>右转
        </name></wpt>
  <wpt lat="29.5247145" lon="105.0615267"><ele>293</ele><name>右转
        </name></wpt>
  <wpt lat="29.5255564" lon="105.059459"><ele>323</ele><name>左转
        </name></wpt>
  <wpt lat="29.5270357" lon="105.0559677"><ele>331</ele><name>左转
        </name></wpt>
  <wpt lat="29.5317127" lon="105.0445084"><ele>395</ele><name>风景点，终点
        </name></wpt>
  <trk><name>内江椑木镇徒步挑战</name>
      <trkseg>
        <trkpt lat="29.5129779" lon="105.088173"><ele>264.34</ele><time>2026-05-08T17:03:39.000Z</time></trkpt>
        <trkpt lat="29.5128857" lon="105.0881462"><ele>264.34</ele><time>2026-05-08T17:04:09.000Z</time></trkpt>
        <trkpt lat="29.5128464" lon="105.0881249"><ele>264.28</ele><time>2026-05-08T17:04:15.000Z</time></trkpt>
        <trkpt lat="29.5128464" lon="105.0881249"><ele>264.28</ele><time>2026-05-08T17:04:17.000Z</time></trkpt>
      </trkseg>
      <trkseg>
        <trkpt lat="29.5115855" lon="105.0881656"><ele>264</ele><time>2026-05-08T17:08:38.000Z</time></trkpt>
        <trkpt lat="29.5115855" lon="105.0881656"><ele>264</ele><time>2026-05-08T17:08:44.000Z</time></trkpt>
        <trkpt lat="29.511499" lon="105.0882186"><ele>260.62</ele><time>2026-05-08T17:08:52.000Z</time></trkpt>
        <trkpt lat="29.5114189" lon="105.0882693"><ele>259.14</ele><time>2026-05-08T17:09:00.000Z</time></trkpt>
        <trkpt lat="29.5113116" lon="105.0883066"><ele>258.38</ele><time>2026-05-08T17:09:16.000Z</time></trkpt>
        <trkpt lat="29.5112118" lon="105.0882716"><ele>258.75</ele><time>2026-05-08T17:09:24.000Z</time></trkpt>
        <trkpt lat="29.5111366" lon="105.0881718"><ele>258.94</ele><time>2026-05-08T17:09:32.000Z</time></trkpt>
        <trkpt lat="29.5110642" lon="105.088057"><ele>259.14</ele><time>2026-05-08T17:09:40.000Z</time></trkpt>
        <trkpt lat="29.5110085" lon="105.0879473"><ele>259.28</ele><time>2026-05-08T17:09:48.000Z</time></trkpt>
        <trkpt lat="29.5109917" lon="105.0878368"><ele>259.66</ele><time>2026-05-08T17:09:56.000Z</time></trkpt>
        <trkpt lat="29.510995" lon="105.087797"><ele>258.84</ele><time>2026-05-08T17:09:58.000Z</time></trkpt>
        <trkpt lat="29.5110683" lon="105.0877358"><ele>258.28</ele><time>2026-05-08T17:10:25.000Z</time></trkpt>
        <trkpt lat="29.5111025" lon="105.0876312"><ele>259.58</ele><time>2026-05-08T17:10:45.000Z</time></trkpt>
        <trkpt lat="29.511093" lon="105.0875076"><ele>261.33</ele><time>2026-05-08T17:10:55.000Z</time></trkpt>
        <trkpt lat="29.5110837" lon="105.087392"><ele>262.73</ele><time>2026-05-08T17:11:03.000Z</time></trkpt>
        <trkpt lat="29.5110711" lon="105.0872798"><ele>264.2</ele><time>2026-05-08T17:11:11.000Z</time></trkpt>
        <trkpt lat="29.5110542" lon="105.0871682"><ele>265.47</ele><time>2026-05-08T17:11:19.000Z</time></trkpt>
        <trkpt lat="29.5110274" lon="105.0870651"><ele>265.97</ele><time>2026-05-08T17:11:29.000Z</time></trkpt>
        <trkpt lat="29.5109443" lon="105.0870161"><ele>266.99</ele><time>2026-05-08T17:11:48.000Z</time></trkpt>
        <trkpt lat="29.5108403" lon="105.0870445"><ele>268.11</ele><time>2026-05-08T17:11:56.000Z</time></trkpt>
        <trkpt lat="29.5107388" lon="105.0870844"><ele>268.89</ele><time>2026-05-08T17:12:04.000Z</time></trkpt>
        <trkpt lat="29.510645" lon="105.0871276"><ele>268.71</ele><time>2026-05-08T17:12:12.000Z</time></trkpt>
        <trkpt lat="29.5105451" lon="105.08717"><ele>269.56</ele><time>2026-05-08T17:12:20.000Z</time></trkpt>
        <trkpt lat="29.5104397" lon="105.0872033"><ele>270.91</ele><time>2026-05-08T17:12:30.000Z</time></trkpt>
        <trkpt lat="29.5103372" lon="105.0871995"><ele>271.99</ele><time>2026-05-08T17:12:37.000Z</time></trkpt>
        <trkpt lat="29.5102372" lon="105.0871639"><ele>273.16</ele><time>2026-05-08T17:12:45.000Z</time></trkpt>
        <trkpt lat="29.5101301" lon="105.087124"><ele>274.88</ele><time>2026-05-08T17:12:53.000Z</time></trkpt>
        <trkpt lat="29.5100244" lon="105.0871022"><ele>276.05</ele><time>2026-05-08T17:13:01.000Z</time></trkpt>
        <trkpt lat="29.5099154" lon="105.0870867"><ele>277.03</ele><time>2026-05-08T17:13:11.000Z</time></trkpt>
        <trkpt lat="29.5098613" lon="105.0870749"><ele>277.9</ele><time>2026-05-08T17:13:17.000Z</time></trkpt>
        <trkpt lat="29.50986" lon="105.0869796"><ele>278.43</ele><time>2026-05-08T17:13:41.000Z</time></trkpt>
        <trkpt lat="29.5098836" lon="105.0868703"><ele>277.63</ele><time>2026-05-08T17:13:51.000Z</time></trkpt>
        <trkpt lat="29.5099095" lon="105.0867469"><ele>275.67</ele><time>2026-05-08T17:14:06.000Z</time></trkpt>
        <trkpt lat="29.5099129" lon="105.0866291"><ele>273.06</ele><time>2026-05-08T17:14:16.000Z</time></trkpt>
        <trkpt lat="29.5098898" lon="105.0865336"><ele>270.54</ele><time>2026-05-08T17:14:26.000Z</time></trkpt>
        <trkpt lat="29.5098858" lon="105.0864173"><ele>268.43</ele><time>2026-05-08T17:14:54.000Z</time></trkpt>
        <trkpt lat="29.5099077" lon="105.0862942"><ele>266.28</ele><time>2026-05-08T17:15:07.000Z</time></trkpt>
        <trkpt lat="29.5099191" lon="105.0861667"><ele>265.46</ele><time>2026-05-08T17:15:15.000Z</time></trkpt>
        <trkpt lat="29.5099135" lon="105.0860462"><ele>265.23</ele><time>2026-05-08T17:15:25.000Z</time></trkpt>
        <trkpt lat="29.5099403" lon="105.0859447"><ele>264.44</ele><time>2026-05-08T17:15:33.000Z</time></trkpt>
        <trkpt lat="29.5099802" lon="105.0858452"><ele>263.58</ele><time>2026-05-08T17:15:43.000Z</time></trkpt>
        <trkpt lat="29.5100337" lon="105.0857587"><ele>262.65</ele><time>2026-05-08T17:15:51.000Z</time></trkpt>
        <trkpt lat="29.5100602" lon="105.0857177"><ele>261.9</ele><time>2026-05-08T17:15:59.000Z</time></trkpt>
        <trkpt lat="29.5100868" lon="105.0856252"><ele>261.55</ele><time>2026-05-08T17:16:15.000Z</time></trkpt>
        <trkpt lat="29.5100913" lon="105.0855104"><ele>261.17</ele><time>2026-05-08T17:16:23.000Z</time></trkpt>
        <trkpt lat="29.5100966" lon="105.0853913"><ele>261.09</ele><time>2026-05-08T17:16:31.000Z</time></trkpt>
        <trkpt lat="29.5101205" lon="105.0852848"><ele>261.33</ele><time>2026-05-08T17:16:39.000Z</time></trkpt>
        <trkpt lat="29.5101573" lon="105.0851698"><ele>261.96</ele><time>2026-05-08T17:16:49.000Z</time></trkpt>
        <trkpt lat="29.5101821" lon="105.0850611"><ele>262.94</ele><time>2026-05-08T17:16:57.000Z</time></trkpt>
        <trkpt lat="29.5102008" lon="105.0849571"><ele>263.51</ele><time>2026-05-08T17:17:05.000Z</time></trkpt>
        <trkpt lat="29.5102622" lon="105.0848765"><ele>264.22</ele><time>2026-05-08T17:17:33.000Z</time></trkpt>
        <trkpt lat="29.5103207" lon="105.0847959"><ele>264.9</ele><time>2026-05-08T17:17:41.000Z</time></trkpt>
        <trkpt lat="29.5103831" lon="105.0847139"><ele>265.16</ele><time>2026-05-08T17:17:49.000Z</time></trkpt>
        <trkpt lat="29.510457" lon="105.0846371"><ele>264.73</ele><time>2026-05-08T17:17:57.000Z</time></trkpt>
        <trkpt lat="29.5105381" lon="105.0845653"><ele>265.13</ele><time>2026-05-08T17:18:07.000Z</time></trkpt>
        <trkpt lat="29.5106108" lon="105.0844671"><ele>265.98</ele><time>2026-05-08T17:18:17.000Z</time></trkpt>
        <trkpt lat="29.5106701" lon="105.084365"><ele>268.92</ele><time>2026-05-08T17:18:25.000Z</time></trkpt>
        <trkpt lat="29.5106983" lon="105.0842581"><ele>270.44</ele><time>2026-05-08T17:18:35.000Z</time></trkpt>
        <trkpt lat="29.5107107" lon="105.0841685"><ele>270.23</ele><time>2026-05-08T17:18:39.000Z</time></trkpt>
        <trkpt lat="29.5107311" lon="105.0840722"><ele>271.33</ele><time>2026-05-08T17:18:59.000Z</time></trkpt>
        <trkpt lat="29.510795" lon="105.0839874"><ele>271.61</ele><time>2026-05-08T17:19:29.000Z</time></trkpt>
        <trkpt lat="29.5108759" lon="105.0839182"><ele>270.71</ele><time>2026-05-08T17:19:33.000Z</time></trkpt>
        <trkpt lat="29.510945" lon="105.0838397"><ele>269.33</ele><time>2026-05-08T17:19:39.000Z</time></trkpt>
        <trkpt lat="29.5110109" lon="105.083748"><ele>268.22</ele><time>2026-05-08T17:19:47.000Z</time></trkpt>
        <trkpt lat="29.5110711" lon="105.0836633"><ele>268.08</ele><time>2026-05-08T17:19:59.000Z</time></trkpt>
        <trkpt lat="29.5111559" lon="105.0836356"><ele>267.86</ele><time>2026-05-08T17:20:15.000Z</time></trkpt>
        <trkpt lat="29.5112428" lon="105.0836874"><ele>267.33</ele><time>2026-05-08T17:20:19.000Z</time></trkpt>
        <trkpt lat="29.5113236" lon="105.0837602"><ele>266.43</ele><time>2026-05-08T17:20:23.000Z</time></trkpt>
        <trkpt lat="29.5114069" lon="105.0838291"><ele>265.74</ele><time>2026-05-08T17:20:31.000Z</time></trkpt>
        <trkpt lat="29.5114883" lon="105.0838957"><ele>265.46</ele><time>2026-05-08T17:20:39.000Z</time></trkpt>
        <trkpt lat="29.5115742" lon="105.0839577"><ele>265.12</ele><time>2026-05-08T17:20:49.000Z</time></trkpt>
        <trkpt lat="29.5116599" lon="105.0840005"><ele>264.85</ele><time>2026-05-08T17:20:59.000Z</time></trkpt>
        <trkpt lat="29.5117443" lon="105.0840472"><ele>264.81</ele><time>2026-05-08T17:21:07.000Z</time></trkpt>
        <trkpt lat="29.5118341" lon="105.0840788"><ele>264.78</ele><time>2026-05-08T17:21:15.000Z</time></trkpt>
        <trkpt lat="29.5119291" lon="105.0840872"><ele>264.82</ele><time>2026-05-08T17:21:23.000Z</time></trkpt>
        <trkpt lat="29.5120284" lon="105.0840804"><ele>264.9</ele><time>2026-05-08T17:21:33.000Z</time></trkpt>
        <trkpt lat="29.5121204" lon="105.0840367"><ele>264.36</ele><time>2026-05-08T17:21:46.000Z</time></trkpt>
        <trkpt lat="29.5121947" lon="105.0839387"><ele>264.33</ele><time>2026-05-08T17:21:54.000Z</time></trkpt>
        <trkpt lat="29.5122592" lon="105.0838348"><ele>263.67</ele><time>2026-05-08T17:22:02.000Z</time></trkpt>
        <trkpt lat="29.5123049" lon="105.0837285"><ele>263.23</ele><time>2026-05-08T17:22:10.000Z</time></trkpt>
        <trkpt lat="29.5123638" lon="105.0836185"><ele>262.21</ele><time>2026-05-08T17:22:18.000Z</time></trkpt>
        <trkpt lat="29.5124338" lon="105.0835242"><ele>261.77</ele><time>2026-05-08T17:22:26.000Z</time></trkpt>
        <trkpt lat="29.5125055" lon="105.0834446"><ele>261.67</ele><time>2026-05-08T17:22:34.000Z</time></trkpt>
        <trkpt lat="29.5125831" lon="105.0833804"><ele>261.83</ele><time>2026-05-08T17:22:43.000Z</time></trkpt>
        <trkpt lat="29.5126594" lon="105.083296"><ele>262.36</ele><time>2026-05-08T17:23:09.000Z</time></trkpt>
        <trkpt lat="29.5127194" lon="105.0832276"><ele>262.76</ele><time>2026-05-08T17:23:19.000Z</time></trkpt>
        <trkpt lat="29.512778" lon="105.0831362"><ele>263.68</ele><time>2026-05-08T17:23:36.000Z</time></trkpt>
        <trkpt lat="29.5128372" lon="105.0830381"><ele>263.73</ele><time>2026-05-08T17:23:44.000Z</time></trkpt>
        <trkpt lat="29.5128926" lon="105.0829384"><ele>263.49</ele><time>2026-05-08T17:23:52.000Z</time></trkpt>
        <trkpt lat="29.5129458" lon="105.0828422"><ele>263.14</ele><time>2026-05-08T17:24:00.000Z</time></trkpt>
        <trkpt lat="29.5130046" lon="105.0827451"><ele>262.74</ele><time>2026-05-08T17:24:10.000Z</time></trkpt>
        <trkpt lat="29.5130652" lon="105.0826392"><ele>262.72</ele><time>2026-05-08T17:24:20.000Z</time></trkpt>
        <trkpt lat="29.5131277" lon="105.082555"><ele>262.92</ele><time>2026-05-08T17:24:29.000Z</time></trkpt>
        <trkpt lat="29.5131906" lon="105.0824719"><ele>262.75</ele><time>2026-05-08T17:24:37.000Z</time></trkpt>
        <trkpt lat="29.513264" lon="105.0823875"><ele>262.54</ele><time>2026-05-08T17:24:45.000Z</time></trkpt>
        <trkpt lat="29.5133483" lon="105.0823079"><ele>262.19</ele><time>2026-05-08T17:24:53.000Z</time></trkpt>
        <trkpt lat="29.5134319" lon="105.0822346"><ele>262.23</ele><time>2026-05-08T17:25:01.000Z</time></trkpt>
        <trkpt lat="29.5135101" lon="105.0821582"><ele>262.29</ele><time>2026-05-08T17:25:09.000Z</time></trkpt>
        <trkpt lat="29.5135842" lon="105.0820829"><ele>262.26</ele><time>2026-05-08T17:25:17.000Z</time></trkpt>
        <trkpt lat="29.5136682" lon="105.0819944"><ele>262.24</ele><time>2026-05-08T17:25:26.000Z</time></trkpt>
        <trkpt lat="29.5137487" lon="105.0819087"><ele>262.12</ele><time>2026-05-08T17:25:34.000Z</time></trkpt>
        <trkpt lat="29.513831" lon="105.0818262"><ele>262.03</ele><time>2026-05-08T17:25:42.000Z</time></trkpt>
        <trkpt lat="29.5139134" lon="105.081745"><ele>262.08</ele><time>2026-05-08T17:25:50.000Z</time></trkpt>
        <trkpt lat="29.5139935" lon="105.081667"><ele>262.03</ele><time>2026-05-08T17:25:58.000Z</time></trkpt>
        <trkpt lat="29.514066" lon="105.0815959"><ele>261.96</ele><time>2026-05-08T17:26:06.000Z</time></trkpt>
        <trkpt lat="29.5141423" lon="105.081529"><ele>262.08</ele><time>2026-05-08T17:26:14.000Z</time></trkpt>
        <trkpt lat="29.5142238" lon="105.08144"><ele>262.2</ele><time>2026-05-08T17:26:25.000Z</time></trkpt>
        <trkpt lat="29.514284" lon="105.08137"><ele>262.4</ele><time>2026-05-08T17:26:37.000Z</time></trkpt>
        <trkpt lat="29.5143606" lon="105.0812918"><ele>263.02</ele><time>2026-05-08T17:26:53.000Z</time></trkpt>
        <trkpt lat="29.5144623" lon="105.0812253"><ele>263.42</ele><time>2026-05-08T17:27:03.000Z</time></trkpt>
        <trkpt lat="29.5145653" lon="105.0811816"><ele>262.03</ele><time>2026-05-08T17:27:09.000Z</time></trkpt>
        <trkpt lat="29.5146608" lon="105.0811501"><ele>259.52</ele><time>2026-05-08T17:27:15.000Z</time></trkpt>
        <trkpt lat="29.5147476" lon="105.0811084"><ele>257.91</ele><time>2026-05-08T17:27:21.000Z</time></trkpt>
        <trkpt lat="29.5148472" lon="105.0810754"><ele>256.69</ele><time>2026-05-08T17:27:29.000Z</time></trkpt>
        <trkpt lat="29.5149541" lon="105.0810356"><ele>255.78</ele><time>2026-05-08T17:27:37.000Z</time></trkpt>
        <trkpt lat="29.5150591" lon="105.0810177"><ele>255.32</ele><time>2026-05-08T17:27:45.000Z</time></trkpt>
        <trkpt lat="29.5151627" lon="105.0810157"><ele>254.61</ele><time>2026-05-08T17:27:55.000Z</time></trkpt>
        <trkpt lat="29.5152635" lon="105.0810406"><ele>253.18</ele><time>2026-05-08T17:28:05.000Z</time></trkpt>
        <trkpt lat="29.5153587" lon="105.0810168"><ele>252.21</ele><time>2026-05-08T17:28:15.000Z</time></trkpt>
        <trkpt lat="29.5154022" lon="105.0809924"><ele>251.36</ele><time>2026-05-08T17:28:17.000Z</time></trkpt>
        <trkpt lat="29.5154694" lon="105.0809504"><ele>250.77</ele><time>2026-05-08T17:28:29.000Z</time></trkpt>
        <trkpt lat="29.5155591" lon="105.0809109"><ele>250.15</ele><time>2026-05-08T17:28:39.000Z</time></trkpt>
        <trkpt lat="29.5156444" lon="105.0808471"><ele>249.43</ele><time>2026-05-08T17:28:47.000Z</time></trkpt>
        <trkpt lat="29.5157144" lon="105.0807664"><ele>248.99</ele><time>2026-05-08T17:28:55.000Z</time></trkpt>
        <trkpt lat="29.5157646" lon="105.0806711"><ele>248.82</ele><time>2026-05-08T17:29:01.000Z</time></trkpt>
        <trkpt lat="29.5158142" lon="105.08057"><ele>249.37</ele><time>2026-05-08T17:29:09.000Z</time></trkpt>
        <trkpt lat="29.5158804" lon="105.0804841"><ele>249.3</ele><time>2026-05-08T17:29:17.000Z</time></trkpt>
        <trkpt lat="29.5159607" lon="105.0804205"><ele>249.23</ele><time>2026-05-08T17:29:25.000Z</time></trkpt>
        <trkpt lat="29.5160422" lon="105.0803593"><ele>249.78</ele><time>2026-05-08T17:29:33.000Z</time></trkpt>
        <trkpt lat="29.5161325" lon="105.0803224"><ele>249.7</ele><time>2026-05-08T17:29:45.000Z</time></trkpt>
        <trkpt lat="29.5162321" lon="105.0802864"><ele>249.51</ele><time>2026-05-08T17:30:01.000Z</time></trkpt>
        <trkpt lat="29.5163223" lon="105.0802403"><ele>249.95</ele><time>2026-05-08T17:30:11.000Z</time></trkpt>
        <trkpt lat="29.516408" lon="105.0801897"><ele>250.23</ele><time>2026-05-08T17:30:21.000Z</time></trkpt>
        <trkpt lat="29.5164491" lon="105.0801648"><ele>250.71</ele><time>2026-05-08T17:30:25.000Z</time></trkpt>
        <trkpt lat="29.5165202" lon="105.080128"><ele>251.08</ele><time>2026-05-08T17:30:35.000Z</time></trkpt>
        <trkpt lat="29.5166049" lon="105.0800807"><ele>251.27</ele><time>2026-05-08T17:30:45.000Z</time></trkpt>
        <trkpt lat="29.5166884" lon="105.0800319"><ele>251.4</ele><time>2026-05-08T17:30:53.000Z</time></trkpt>
        <trkpt lat="29.5167859" lon="105.0799842"><ele>251.62</ele><time>2026-05-08T17:31:03.000Z</time></trkpt>
        <trkpt lat="29.5168712" lon="105.0799284"><ele>251.57</ele><time>2026-05-08T17:31:11.000Z</time></trkpt>
        <trkpt lat="29.51696" lon="105.0798743"><ele>251.51</ele><time>2026-05-08T17:31:21.000Z</time></trkpt>
        <trkpt lat="29.5170456" lon="105.0798277"><ele>251.34</ele><time>2026-05-08T17:31:29.000Z</time></trkpt>
        <trkpt lat="29.517135" lon="105.0797837"><ele>251.2</ele><time>2026-05-08T17:31:37.000Z</time></trkpt>
        <trkpt lat="29.5172325" lon="105.0797713"><ele>250.85</ele><time>2026-05-08T17:31:49.000Z</time></trkpt>
        <trkpt lat="29.5173341" lon="105.0797746"><ele>250.38</ele><time>2026-05-08T17:32:07.000Z</time></trkpt>
        <trkpt lat="29.5174264" lon="105.079752"><ele>250.44</ele><time>2026-05-08T17:32:17.000Z</time></trkpt>
        <trkpt lat="29.5175119" lon="105.0796895"><ele>250.45</ele><time>2026-05-08T17:33:25.000Z</time></trkpt>
        <trkpt lat="29.5175958" lon="105.0796297"><ele>250.67</ele><time>2026-05-08T17:33:37.000Z</time></trkpt>
        <trkpt lat="29.5176914" lon="105.0795745"><ele>250.73</ele><time>2026-05-08T17:33:49.000Z</time></trkpt>
        <trkpt lat="29.5177851" lon="105.0795191"><ele>251.06</ele><time>2026-05-08T17:33:59.000Z</time></trkpt>
        <trkpt lat="29.5178824" lon="105.0794657"><ele>251.32</ele><time>2026-05-08T17:34:09.000Z</time></trkpt>
        <trkpt lat="29.5179677" lon="105.0794154"><ele>251.61</ele><time>2026-05-08T17:34:19.000Z</time></trkpt>
        <trkpt lat="29.5180396" lon="105.0793426"><ele>251.67</ele><time>2026-05-08T17:34:29.000Z</time></trkpt>
        <trkpt lat="29.518099" lon="105.0792619"><ele>251.94</ele><time>2026-05-08T17:34:41.000Z</time></trkpt>
        <trkpt lat="29.5181588" lon="105.0791824"><ele>251.83</ele><time>2026-05-08T17:34:51.000Z</time></trkpt>
        <trkpt lat="29.5182224" lon="105.0790955"><ele>251.72</ele><time>2026-05-08T17:35:05.000Z</time></trkpt>
        <trkpt lat="29.5182851" lon="105.079011"><ele>251.6</ele><time>2026-05-08T17:36:06.000Z</time></trkpt>
        <trkpt lat="29.5183281" lon="105.078909"><ele>252.34</ele><time>2026-05-08T17:36:18.000Z</time></trkpt>
        <trkpt lat="29.5184249" lon="105.0788954"><ele>253.44</ele><time>2026-05-08T17:36:30.000Z</time></trkpt>
        <trkpt lat="29.5185122" lon="105.0788591"><ele>253.04</ele><time>2026-05-08T17:36:42.000Z</time></trkpt>
        <trkpt lat="29.5185955" lon="105.0788002"><ele>253.14</ele><time>2026-05-08T17:36:52.000Z</time></trkpt>
        <trkpt lat="29.5186812" lon="105.0787346"><ele>253.02</ele><time>2026-05-08T17:37:02.000Z</time></trkpt>
        <trkpt lat="29.5187721" lon="105.078672"><ele>252.72</ele><time>2026-05-08T17:37:12.000Z</time></trkpt>
        <trkpt lat="29.5188671" lon="105.0786126"><ele>252.33</ele><time>2026-05-08T17:37:28.000Z</time></trkpt>
        <trkpt lat="29.518929" lon="105.0785195"><ele>252.33</ele><time>2026-05-08T17:38:07.000Z</time></trkpt>
        <trkpt lat="29.5189809" lon="105.0784086"><ele>252.8</ele><time>2026-05-08T17:38:17.000Z</time></trkpt>
        <trkpt lat="29.5190544" lon="105.0783138"><ele>253.65</ele><time>2026-05-08T17:38:27.000Z</time></trkpt>
        <trkpt lat="29.519094" lon="105.0782621"><ele>253.98</ele><time>2026-05-08T17:38:33.000Z</time></trkpt>
        <trkpt lat="29.5191715" lon="105.078229"><ele>254.54</ele><time>2026-05-08T17:38:58.000Z</time></trkpt>
        <trkpt lat="29.5192599" lon="105.0781848"><ele>255.13</ele><time>2026-05-08T17:39:04.000Z</time></trkpt>
        <trkpt lat="29.5193493" lon="105.0781327"><ele>256.44</ele><time>2026-05-08T17:39:12.000Z</time></trkpt>
        <trkpt lat="29.5194395" lon="105.0780791"><ele>257.68</ele><time>2026-05-08T17:39:22.000Z</time></trkpt>
        <trkpt lat="29.5195264" lon="105.0780299"><ele>258.43</ele><time>2026-05-08T17:39:30.000Z</time></trkpt>
        <trkpt lat="29.5195837" lon="105.0779499"><ele>258.49</ele><time>2026-05-08T17:39:38.000Z</time></trkpt>
        <trkpt lat="29.5196377" lon="105.0778593"><ele>258.33</ele><time>2026-05-08T17:39:46.000Z</time></trkpt>
        <trkpt lat="29.5197044" lon="105.0777751"><ele>257.59</ele><time>2026-05-08T17:39:56.000Z</time></trkpt>
        <trkpt lat="29.519786" lon="105.0776952"><ele>256.29</ele><time>2026-05-08T17:40:04.000Z</time></trkpt>
        <trkpt lat="29.5198679" lon="105.077612"><ele>256.04</ele><time>2026-05-08T17:40:32.000Z</time></trkpt>
        <trkpt lat="29.5199511" lon="105.0775262"><ele>256.53</ele><time>2026-05-08T17:40:42.000Z</time></trkpt>
        <trkpt lat="29.520033" lon="105.0774406"><ele>257.03</ele><time>2026-05-08T17:40:52.000Z</time></trkpt>
        <trkpt lat="29.5200868" lon="105.0773469"><ele>257.33</ele><time>2026-05-08T17:41:02.000Z</time></trkpt>
        <trkpt lat="29.5201172" lon="105.0772432"><ele>257.67</ele><time>2026-05-08T17:41:14.000Z</time></trkpt>
        <trkpt lat="29.5201577" lon="105.0771503"><ele>257.98</ele><time>2026-05-08T17:41:34.000Z</time></trkpt>
        <trkpt lat="29.520241" lon="105.0771136"><ele>257.69</ele><time>2026-05-08T17:45:44.000Z</time></trkpt>
        <trkpt lat="29.5203235" lon="105.077034"><ele>257.22</ele><time>2026-05-08T17:45:54.000Z</time></trkpt>
        <trkpt lat="29.520417" lon="105.0769582"><ele>256.99</ele><time>2026-05-08T17:46:06.000Z</time></trkpt>
        <trkpt lat="29.5205001" lon="105.0768989"><ele>256.35</ele><time>2026-05-08T17:46:18.000Z</time></trkpt>
        <trkpt lat="29.5205844" lon="105.0768574"><ele>256.12</ele><time>2026-05-08T17:46:28.000Z</time></trkpt>
        <trkpt lat="29.5206544" lon="105.0767926"><ele>255.96</ele><time>2026-05-08T17:46:38.000Z</time></trkpt>
        <trkpt lat="29.5207072" lon="105.0767006"><ele>255.76</ele><time>2026-05-08T17:46:48.000Z</time></trkpt>
        <trkpt lat="29.5207752" lon="105.0766006"><ele>255.59</ele><time>2026-05-08T17:47:00.000Z</time></trkpt>
        <trkpt lat="29.5208265" lon="105.0765316"><ele>255.41</ele><time>2026-05-08T17:47:10.000Z</time></trkpt>
        <trkpt lat="29.5209022" lon="105.0764596"><ele>255.71</ele><time>2026-05-08T17:47:22.000Z</time></trkpt>
        <trkpt lat="29.5209883" lon="105.076388"><ele>255.95</ele><time>2026-05-08T17:47:30.000Z</time></trkpt>
        <trkpt lat="29.5210749" lon="105.0763181"><ele>256.19</ele><time>2026-05-08T17:47:40.000Z</time></trkpt>
        <trkpt lat="29.5211567" lon="105.0762499"><ele>256.36</ele><time>2026-05-08T17:47:50.000Z</time></trkpt>
        <trkpt lat="29.5212304" lon="105.0761776"><ele>256.21</ele><time>2026-05-08T17:48:00.000Z</time></trkpt>
        <trkpt lat="29.5212312" lon="105.0760813"><ele>256.59</ele><time>2026-05-08T17:48:37.000Z</time></trkpt>
        <trkpt lat="29.5211852" lon="105.0759826"><ele>256.87</ele><time>2026-05-08T17:48:45.000Z</time></trkpt>
        <trkpt lat="29.5211564" lon="105.0759249"><ele>258.02</ele><time>2026-05-08T17:48:49.000Z</time></trkpt>
        <trkpt lat="29.5211339" lon="105.0758313"><ele>258.94</ele><time>2026-05-08T17:48:59.000Z</time></trkpt>
        <trkpt lat="29.5210813" lon="105.0757451"><ele>260.06</ele><time>2026-05-08T17:49:07.000Z</time></trkpt>
        <trkpt lat="29.5210097" lon="105.0756552"><ele>261.25</ele><time>2026-05-08T17:49:17.000Z</time></trkpt>
        <trkpt lat="29.5209384" lon="105.0755688"><ele>262.6</ele><time>2026-05-08T17:49:26.000Z</time></trkpt>
        <trkpt lat="29.5208802" lon="105.0754751"><ele>263.71</ele><time>2026-05-08T17:49:38.000Z</time></trkpt>
        <trkpt lat="29.5209113" lon="105.0753833"><ele>265.82</ele><time>2026-05-08T17:49:48.000Z</time></trkpt>
        <trkpt lat="29.5209906" lon="105.0753057"><ele>266.94</ele><time>2026-05-08T17:49:58.000Z</time></trkpt>
        <trkpt lat="29.5210835" lon="105.0752371"><ele>267.5</ele><time>2026-05-08T17:50:06.000Z</time></trkpt>
        <trkpt lat="29.5211789" lon="105.0751678"><ele>267.6</ele><time>2026-05-08T17:50:16.000Z</time></trkpt>
        <trkpt lat="29.5212691" lon="105.0751036"><ele>267</ele><time>2026-05-08T17:50:24.000Z</time></trkpt>
        <trkpt lat="29.5213497" lon="105.0750464"><ele>267.17</ele><time>2026-05-08T17:50:34.000Z</time></trkpt>
        <trkpt lat="29.5214388" lon="105.0749776"><ele>266.49</ele><time>2026-05-08T17:50:44.000Z</time></trkpt>
        <trkpt lat="29.5215212" lon="105.0749096"><ele>266.06</ele><time>2026-05-08T17:50:52.000Z</time></trkpt>
        <trkpt lat="29.5216015" lon="105.0748395"><ele>265.41</ele><time>2026-05-08T17:51:00.000Z</time></trkpt>
        <trkpt lat="29.5216834" lon="105.0747714"><ele>265.09</ele><time>2026-05-08T17:51:08.000Z</time></trkpt>
        <trkpt lat="29.5217578" lon="105.0747068"><ele>264.33</ele><time>2026-05-08T17:51:16.000Z</time></trkpt>
        <trkpt lat="29.5218458" lon="105.074643"><ele>263.84</ele><time>2026-05-08T17:51:26.000Z</time></trkpt>
        <trkpt lat="29.5219277" lon="105.0745746"><ele>263.58</ele><time>2026-05-08T17:51:36.000Z</time></trkpt>
        <trkpt lat="29.5219571" lon="105.0745453"><ele>263.8</ele><time>2026-05-08T17:51:38.000Z</time></trkpt>
        <trkpt lat="29.5220377" lon="105.0745668"><ele>264.13</ele><time>2026-05-08T18:15:08.000Z</time></trkpt>
        <trkpt lat="29.5221345" lon="105.0745988"><ele>263.11</ele><time>2026-05-08T18:15:16.000Z</time></trkpt>
        <trkpt lat="29.5222317" lon="105.0746251"><ele>263.06</ele><time>2026-05-08T18:15:24.000Z</time></trkpt>
        <trkpt lat="29.5223355" lon="105.0746114"><ele>263.59</ele><time>2026-05-08T18:16:11.000Z</time></trkpt>
        <trkpt lat="29.5224243" lon="105.074652"><ele>263.38</ele><time>2026-05-08T18:16:19.000Z</time></trkpt>
        <trkpt lat="29.5225008" lon="105.0747376"><ele>262.42</ele><time>2026-05-08T18:16:29.000Z</time></trkpt>
        <trkpt lat="29.5225893" lon="105.0747534"><ele>261.91</ele><time>2026-05-08T18:16:41.000Z</time></trkpt>
        <trkpt lat="29.5226839" lon="105.074726"><ele>261.23</ele><time>2026-05-08T18:16:51.000Z</time></trkpt>
        <trkpt lat="29.5227787" lon="105.0747786"><ele>259.91</ele><time>2026-05-08T18:16:59.000Z</time></trkpt>
        <trkpt lat="29.5228421" lon="105.0748745"><ele>258.22</ele><time>2026-05-08T18:17:11.000Z</time></trkpt>
        <trkpt lat="29.5228841" lon="105.0749023"><ele>256.86</ele><time>2026-05-08T18:17:25.000Z</time></trkpt>
        <trkpt lat="29.5229742" lon="105.0748377"><ele>256.24</ele><time>2026-05-08T18:17:47.000Z</time></trkpt>
        <trkpt lat="29.5230617" lon="105.0747457"><ele>255.88</ele><time>2026-05-08T18:17:51.000Z</time></trkpt>
        <trkpt lat="29.5231498" lon="105.0746695"><ele>255.55</ele><time>2026-05-08T18:17:55.000Z</time></trkpt>
        <trkpt lat="29.5232418" lon="105.0746025"><ele>254.8</ele><time>2026-05-08T18:17:59.000Z</time></trkpt>
        <trkpt lat="29.5233214" lon="105.0745314"><ele>254.3</ele><time>2026-05-08T18:18:05.000Z</time></trkpt>
        <trkpt lat="29.5233923" lon="105.0744587"><ele>254.41</ele><time>2026-05-08T18:18:21.000Z</time></trkpt>
        <trkpt lat="29.5234606" lon="105.0743758"><ele>254.49</ele><time>2026-05-08T18:18:29.000Z</time></trkpt>
        <trkpt lat="29.523529" lon="105.0742876"><ele>254.31</ele><time>2026-05-08T18:18:37.000Z</time></trkpt>
        <trkpt lat="29.5235895" lon="105.0741957"><ele>254.12</ele><time>2026-05-08T18:18:45.000Z</time></trkpt>
        <trkpt lat="29.5235635" lon="105.0740991"><ele>254.23</ele><time>2026-05-08T18:18:56.000Z</time></trkpt>
        <trkpt lat="29.523545" lon="105.0739826"><ele>254.47</ele><time>2026-05-08T18:19:06.000Z</time></trkpt>
        <trkpt lat="29.5235745" lon="105.0738873"><ele>255.1</ele><time>2026-05-08T18:19:14.000Z</time></trkpt>
        <trkpt lat="29.5236501" lon="105.0738281"><ele>255.48</ele><time>2026-05-08T18:19:22.000Z</time></trkpt>
        <trkpt lat="29.5237135" lon="105.0737403"><ele>255.12</ele><time>2026-05-08T18:19:30.000Z</time></trkpt>
        <trkpt lat="29.5237689" lon="105.0736503"><ele>254.99</ele><time>2026-05-08T18:19:38.000Z</time></trkpt>
        <trkpt lat="29.5238111" lon="105.0735556"><ele>255.32</ele><time>2026-05-08T18:19:46.000Z</time></trkpt>
        <trkpt lat="29.5238874" lon="105.0734751"><ele>255.95</ele><time>2026-05-08T18:19:56.000Z</time></trkpt>
        <trkpt lat="29.5239682" lon="105.0733888"><ele>255.94</ele><time>2026-05-08T18:20:08.000Z</time></trkpt>
        <trkpt lat="29.5240324" lon="105.0732997"><ele>256.39</ele><time>2026-05-08T18:20:16.000Z</time></trkpt>
        <trkpt lat="29.5240798" lon="105.0732177"><ele>256.73</ele><time>2026-05-08T18:20:26.000Z</time></trkpt>
        <trkpt lat="29.524156" lon="105.073225"><ele>256.95</ele><time>2026-05-08T18:20:38.000Z</time></trkpt>
        <trkpt lat="29.5241333" lon="105.0732074"><ele>256.71</ele><time>2026-05-08T18:20:48.000Z</time></trkpt>
        <trkpt lat="29.5241778" lon="105.0732443"><ele>256.55</ele><time>2026-05-08T18:21:06.000Z</time></trkpt>
        <trkpt lat="29.5242417" lon="105.0732088"><ele>256.34</ele><time>2026-05-08T18:21:14.000Z</time></trkpt>
        <trkpt lat="29.5243045" lon="105.073127"><ele>256.06</ele><time>2026-05-08T18:21:22.000Z</time></trkpt>
        <trkpt lat="29.5243591" lon="105.0730326"><ele>255.41</ele><time>2026-05-08T18:21:32.000Z</time></trkpt>
        <trkpt lat="29.5244137" lon="105.0729243"><ele>255.6</ele><time>2026-05-08T18:21:40.000Z</time></trkpt>
        <trkpt lat="29.5244634" lon="105.0728194"><ele>255.79</ele><time>2026-05-08T18:21:48.000Z</time></trkpt>
        <trkpt lat="29.5245094" lon="105.0727172"><ele>255.94</ele><time>2026-05-08T18:21:56.000Z</time></trkpt>
        <trkpt lat="29.5245085" lon="105.0726571"><ele>256.15</ele><time>2026-05-08T18:22:12.000Z</time></trkpt>
        <trkpt lat="29.5245393" lon="105.07257"><ele>255.99</ele><time>2026-05-08T18:22:38.000Z</time></trkpt>
        <trkpt lat="29.5245893" lon="105.0724797"><ele>255.77</ele><time>2026-05-08T18:22:46.000Z</time></trkpt>
        <trkpt lat="29.5246022" lon="105.0724444"><ele>255.38</ele><time>2026-05-08T18:22:50.000Z</time></trkpt>
        <trkpt lat="29.5245696" lon="105.0723724"><ele>255.56</ele><time>2026-05-08T18:23:14.000Z</time></trkpt>
        <trkpt lat="29.5244795" lon="105.0723296"><ele>255.96</ele><time>2026-05-08T18:23:24.000Z</time></trkpt>
        <trkpt lat="29.5243569" lon="105.0722782"><ele>256.96</ele><time>2026-05-08T18:23:32.000Z</time></trkpt>
        <trkpt lat="29.5242708" lon="105.0722002"><ele>258.68</ele><time>2026-05-08T18:23:52.000Z</time></trkpt>
        <trkpt lat="29.524235" lon="105.072091"><ele>259.65</ele><time>2026-05-08T18:24:02.000Z</time></trkpt>
        <trkpt lat="29.5242162" lon="105.0719823"><ele>261.55</ele><time>2026-05-08T18:24:10.000Z</time></trkpt>
        <trkpt lat="29.5241797" lon="105.0718835"><ele>263.37</ele><time>2026-05-08T18:24:16.000Z</time></trkpt>
        <trkpt lat="29.52414" lon="105.071783"><ele>264.63</ele><time>2026-05-08T18:24:24.000Z</time></trkpt>
        <trkpt lat="29.5240798" lon="105.0716837"><ele>265.07</ele><time>2026-05-08T18:24:32.000Z</time></trkpt>
        <trkpt lat="29.5240288" lon="105.0715722"><ele>265.53</ele><time>2026-05-08T18:24:41.000Z</time></trkpt>
        <trkpt lat="29.5240226" lon="105.0714583"><ele>264.39</ele><time>2026-05-08T18:24:49.000Z</time></trkpt>
        <trkpt lat="29.5240173" lon="105.0713305"><ele>263.78</ele><time>2026-05-08T18:24:57.000Z</time></trkpt>
        <trkpt lat="29.5240267" lon="105.0712044"><ele>263.42</ele><time>2026-05-08T18:25:07.000Z</time></trkpt>
        <trkpt lat="29.5240357" lon="105.0710918"><ele>262.91</ele><time>2026-05-08T18:25:13.000Z</time></trkpt>
        <trkpt lat="29.5240426" lon="105.0709708"><ele>262.43</ele><time>2026-05-08T18:25:21.000Z</time></trkpt>
        <trkpt lat="29.5240448" lon="105.070857"><ele>261.73</ele><time>2026-05-08T18:25:27.000Z</time></trkpt>
        <trkpt lat="29.5240459" lon="105.070729"><ele>261.33</ele><time>2026-05-08T18:25:35.000Z</time></trkpt>
        <trkpt lat="29.5240511" lon="105.070615"><ele>260.71</ele><time>2026-05-08T18:25:42.000Z</time></trkpt>
        <trkpt lat="29.5240535" lon="105.0704969"><ele>260.2</ele><time>2026-05-08T18:25:50.000Z</time></trkpt>
        <trkpt lat="29.5240622" lon="105.0703701"><ele>259.82</ele><time>2026-05-08T18:25:58.000Z</time></trkpt>
        <trkpt lat="29.5240685" lon="105.0702447"><ele>259.64</ele><time>2026-05-08T18:26:06.000Z</time></trkpt>
        <trkpt lat="29.5240743" lon="105.0701275"><ele>259.73</ele><time>2026-05-08T18:26:14.000Z</time></trkpt>
        <trkpt lat="29.5240735" lon="105.0700102"><ele>259.76</ele><time>2026-05-08T18:26:22.000Z</time></trkpt>
        <trkpt lat="29.524073" lon="105.069895"><ele>260.03</ele><time>2026-05-08T18:26:28.000Z</time></trkpt>
        <trkpt lat="29.5240714" lon="105.0697791"><ele>260.28</ele><time>2026-05-08T18:26:32.000Z</time></trkpt>
        <trkpt lat="29.5240693" lon="105.0696584"><ele>260.55</ele><time>2026-05-08T18:26:36.000Z</time></trkpt>
        <trkpt lat="29.5240675" lon="105.0695258"><ele>260.54</ele><time>2026-05-08T18:26:40.000Z</time></trkpt>
        <trkpt lat="29.524069" lon="105.0693848"><ele>260.73</ele><time>2026-05-08T18:26:45.000Z</time></trkpt>
        <trkpt lat="29.5240707" lon="105.0692462"><ele>260.91</ele><time>2026-05-08T18:26:49.000Z</time></trkpt>
        <trkpt lat="29.5240734" lon="105.0691278"><ele>261.05</ele><time>2026-05-08T18:26:53.000Z</time></trkpt>
        <trkpt lat="29.5240763" lon="105.0689818"><ele>260.82</ele><time>2026-05-08T18:26:59.000Z</time></trkpt>
        <trkpt lat="29.524079" lon="105.0688416"><ele>260.84</ele><time>2026-05-08T18:27:03.000Z</time></trkpt>
        <trkpt lat="29.5240845" lon="105.0687134"><ele>260.86</ele><time>2026-05-08T18:27:07.000Z</time></trkpt>
        <trkpt lat="29.524085" lon="105.0685904"><ele>260.63</ele><time>2026-05-08T18:27:11.000Z</time></trkpt>
        <trkpt lat="29.5240822" lon="105.0684742"><ele>260.58</ele><time>2026-05-08T18:27:17.000Z</time></trkpt>
        <trkpt lat="29.5240801" lon="105.0683447"><ele>260.56</ele><time>2026-05-08T18:27:49.000Z</time></trkpt>
        <trkpt lat="29.5240885" lon="105.0682325"><ele>260.61</ele><time>2026-05-08T18:27:53.000Z</time></trkpt>
        <trkpt lat="29.5241012" lon="105.0681145"><ele>260.75</ele><time>2026-05-08T18:27:57.000Z</time></trkpt>
        <trkpt lat="29.5241241" lon="105.0679926"><ele>260.79</ele><time>2026-05-08T18:28:01.000Z</time></trkpt>
        <trkpt lat="29.5241493" lon="105.0678732"><ele>260.68</ele><time>2026-05-08T18:28:05.000Z</time></trkpt>
        <trkpt lat="29.5241686" lon="105.067749"><ele>260.28</ele><time>2026-05-08T18:28:09.000Z</time></trkpt>
        <trkpt lat="29.5241828" lon="105.0676195"><ele>260.04</ele><time>2026-05-08T18:28:13.000Z</time></trkpt>
        <trkpt lat="29.5242015" lon="105.0675036"><ele>259.86</ele><time>2026-05-08T18:28:17.000Z</time></trkpt>
        <trkpt lat="29.5242231" lon="105.0673888"><ele>259.88</ele><time>2026-05-08T18:28:21.000Z</time></trkpt>
        <trkpt lat="29.5242388" lon="105.0672713"><ele>259.79</ele><time>2026-05-08T18:28:29.000Z</time></trkpt>
        <trkpt lat="29.5242395" lon="105.0671586"><ele>259.96</ele><time>2026-05-08T18:28:39.000Z</time></trkpt>
        <trkpt lat="29.5241485" lon="105.0671185"><ele>259.89</ele><time>2026-05-08T18:29:03.000Z</time></trkpt>
        <trkpt lat="29.5240365" lon="105.0670947"><ele>259.33</ele><time>2026-05-08T18:29:11.000Z</time></trkpt>
        <trkpt lat="29.5239296" lon="105.0670659"><ele>259.01</ele><time>2026-05-08T18:29:21.000Z</time></trkpt>
        <trkpt lat="29.5238438" lon="105.0670015"><ele>259.31</ele><time>2026-05-08T18:29:33.000Z</time></trkpt>
        <trkpt lat="29.5237754" lon="105.0669005"><ele>260.52</ele><time>2026-05-08T18:29:53.000Z</time></trkpt>
        <trkpt lat="29.523735" lon="105.0667797"><ele>261.2</ele><time>2026-05-08T18:30:03.000Z</time></trkpt>
        <trkpt lat="29.5237222" lon="105.0666478"><ele>260.78</ele><time>2026-05-08T18:30:37.000Z</time></trkpt>
        <trkpt lat="29.5236919" lon="105.0665387"><ele>259.85</ele><time>2026-05-08T18:30:45.000Z</time></trkpt>
        <trkpt lat="29.523689" lon="105.0664324"><ele>258.99</ele><time>2026-05-08T18:30:53.000Z</time></trkpt>
        <trkpt lat="29.5236908" lon="105.0663117"><ele>259.3</ele><time>2026-05-08T18:31:00.000Z</time></trkpt>
        <trkpt lat="29.5236658" lon="105.0662157"><ele>260.57</ele><time>2026-05-08T18:31:10.000Z</time></trkpt>
        <trkpt lat="29.5237074" lon="105.0661134"><ele>261.04</ele><time>2026-05-08T18:31:24.000Z</time></trkpt>
        <trkpt lat="29.5237732" lon="105.0660142"><ele>260.97</ele><time>2026-05-08T18:31:34.000Z</time></trkpt>
        <trkpt lat="29.5238436" lon="105.0659182"><ele>260.07</ele><time>2026-05-08T18:31:42.000Z</time></trkpt>
        <trkpt lat="29.5239037" lon="105.0658128"><ele>260.14</ele><time>2026-05-08T18:31:50.000Z</time></trkpt>
        <trkpt lat="29.5239487" lon="105.06571"><ele>259.62</ele><time>2026-05-08T18:31:56.000Z</time></trkpt>
        <trkpt lat="29.5239696" lon="105.0656865"><ele>259.98</ele><time>2026-05-08T18:32:01.000Z</time></trkpt>
        <trkpt lat="29.5239897" lon="105.0656033"><ele>259.99</ele><time>2026-05-08T18:32:11.000Z</time></trkpt>
        <trkpt lat="29.5240066" lon="105.0654882"><ele>259.68</ele><time>2026-05-08T18:32:19.000Z</time></trkpt>
        <trkpt lat="29.5240205" lon="105.0653636"><ele>258.79</ele><time>2026-05-08T18:32:27.000Z</time></trkpt>
        <trkpt lat="29.5240271" lon="105.0652497"><ele>259.04</ele><time>2026-05-08T18:32:33.000Z</time></trkpt>
        <trkpt lat="29.5240274" lon="105.0651192"><ele>259.12</ele><time>2026-05-08T18:32:41.000Z</time></trkpt>
        <trkpt lat="29.5240406" lon="105.0650087"><ele>259.04</ele><time>2026-05-08T18:32:47.000Z</time></trkpt>
        <trkpt lat="29.5240837" lon="105.0648969"><ele>259.25</ele><time>2026-05-08T18:32:55.000Z</time></trkpt>
        <trkpt lat="29.5241647" lon="105.0648146"><ele>259.58</ele><time>2026-05-08T18:33:05.000Z</time></trkpt>
        <trkpt lat="29.5242071" lon="105.0648028"><ele>259.76</ele><time>2026-05-08T18:33:13.000Z</time></trkpt>
        <trkpt lat="29.524219" lon="105.0647168"><ele>260.1</ele><time>2026-05-08T18:33:25.000Z</time></trkpt>
        <trkpt lat="29.5241888" lon="105.0646221"><ele>260.16</ele><time>2026-05-08T18:33:31.000Z</time></trkpt>
        <trkpt lat="29.5241528" lon="105.0645212"><ele>260.86</ele><time>2026-05-08T18:33:37.000Z</time></trkpt>
        <trkpt lat="29.524111" lon="105.0644093"><ele>261.51</ele><time>2026-05-08T18:33:47.000Z</time></trkpt>
        <trkpt lat="29.5240647" lon="105.064305"><ele>261.47</ele><time>2026-05-08T18:33:55.000Z</time></trkpt>
        <trkpt lat="29.5240208" lon="105.0642065"><ele>261.51</ele><time>2026-05-08T18:34:07.000Z</time></trkpt>
        <trkpt lat="29.523989" lon="105.0641284"><ele>262.32</ele><time>2026-05-08T18:34:15.000Z</time></trkpt>
        <trkpt lat="29.5239449" lon="105.064037"><ele>262.35</ele><time>2026-05-08T18:34:37.000Z</time></trkpt>
        <trkpt lat="29.5239362" lon="105.063924"><ele>262.12</ele><time>2026-05-08T18:34:47.000Z</time></trkpt>
        <trkpt lat="29.5239508" lon="105.0638168"><ele>262.54</ele><time>2026-05-08T18:34:55.000Z</time></trkpt>
        <trkpt lat="29.5239526" lon="105.0637058"><ele>262.94</ele><time>2026-05-08T18:35:06.000Z</time></trkpt>
        <trkpt lat="29.5239026" lon="105.0636122"><ele>263.19</ele><time>2026-05-08T18:35:16.000Z</time></trkpt>
        <trkpt lat="29.5238597" lon="105.0634942"><ele>262.96</ele><time>2026-05-08T18:35:26.000Z</time></trkpt>
        <trkpt lat="29.5238085" lon="105.0633972"><ele>262.27</ele><time>2026-05-08T18:35:32.000Z</time></trkpt>
        <trkpt lat="29.5237559" lon="105.0633047"><ele>263.19</ele><time>2026-05-08T18:35:40.000Z</time></trkpt>
        <trkpt lat="29.5236978" lon="105.0631984"><ele>263.51</ele><time>2026-05-08T18:35:52.000Z</time></trkpt>
        <trkpt lat="29.5236801" lon="105.0630927"><ele>262.65</ele><time>2026-05-08T18:36:00.000Z</time></trkpt>
        <trkpt lat="29.5236978" lon="105.0629745"><ele>261.96</ele><time>2026-05-08T18:36:08.000Z</time></trkpt>
        <trkpt lat="29.5237291" lon="105.0628632"><ele>261.8</ele><time>2026-05-08T18:36:16.000Z</time></trkpt>
        <trkpt lat="29.5237513" lon="105.0627495"><ele>261.82</ele><time>2026-05-08T18:36:54.000Z</time></trkpt>
        <trkpt lat="29.5237858" lon="105.0626415"><ele>262.18</ele><time>2026-05-08T18:37:02.000Z</time></trkpt>
        <trkpt lat="29.523811" lon="105.0625356"><ele>262.62</ele><time>2026-05-08T18:37:10.000Z</time></trkpt>
        <trkpt lat="29.5238287" lon="105.0624279"><ele>263.36</ele><time>2026-05-08T18:37:18.000Z</time></trkpt>
        <trkpt lat="29.5238706" lon="105.0623293"><ele>264.02</ele><time>2026-05-08T18:37:29.000Z</time></trkpt>
        <trkpt lat="29.5239118" lon="105.062231"><ele>264.97</ele><time>2026-05-08T18:37:37.000Z</time></trkpt>
        <trkpt lat="29.5239495" lon="105.0621461"><ele>265.46</ele><time>2026-05-08T18:37:47.000Z</time></trkpt>
        <trkpt lat="29.5240346" lon="105.0621949"><ele>265.89</ele><time>2026-05-08T18:40:23.000Z</time></trkpt>
        <trkpt lat="29.5241395" lon="105.0621959"><ele>266.88</ele><time>2026-05-08T18:40:35.000Z</time></trkpt>
        <trkpt lat="29.5242003" lon="105.0621148"><ele>269.64</ele><time>2026-05-08T18:40:43.000Z</time></trkpt>
        <trkpt lat="29.5242656" lon="105.0620283"><ele>271.28</ele><time>2026-05-08T18:40:53.000Z</time></trkpt>
        <trkpt lat="29.5243442" lon="105.0619547"><ele>272.93</ele><time>2026-05-08T18:41:05.000Z</time></trkpt>
        <trkpt lat="29.5244125" lon="105.0619112"><ele>274.88</ele><time>2026-05-08T18:41:15.000Z</time></trkpt>
        <trkpt lat="29.5244682" lon="105.0618398"><ele>276.38</ele><time>2026-05-08T18:41:37.000Z</time></trkpt>
        <trkpt lat="29.5245533" lon="105.06182"><ele>278.46</ele><time>2026-05-08T18:41:49.000Z</time></trkpt>
        <trkpt lat="29.5246085" lon="105.0617987"><ele>280.77</ele><time>2026-05-08T18:41:59.000Z</time></trkpt>
        <trkpt lat="29.5246479" lon="105.0616853"><ele>282.74</ele><time>2026-05-08T18:42:17.000Z</time></trkpt>
        <trkpt lat="29.5246917" lon="105.0615726"><ele>285.38</ele><time>2026-05-08T18:42:25.000Z</time></trkpt>
        <trkpt lat="29.5247145" lon="105.0615267"><ele>287.96</ele><time>2026-05-08T18:42:31.000Z</time></trkpt>
        <trkpt lat="29.5247863" lon="105.0614747"><ele>289.96</ele><time>2026-05-08T18:43:05.000Z</time></trkpt>
        <trkpt lat="29.5248885" lon="105.0614452"><ele>291.98</ele><time>2026-05-08T18:43:15.000Z</time></trkpt>
        <trkpt lat="29.524956" lon="105.0613672"><ele>293.97</ele><time>2026-05-08T18:43:23.000Z</time></trkpt>
        <trkpt lat="29.5250065" lon="105.0612753"><ele>295.34</ele><time>2026-05-08T18:43:29.000Z</time></trkpt>
        <trkpt lat="29.5250328" lon="105.0611699"><ele>296.75</ele><time>2026-05-08T18:43:37.000Z</time></trkpt>
        <trkpt lat="29.5250454" lon="105.0610544"><ele>297.19</ele><time>2026-05-08T18:43:47.000Z</time></trkpt>
        <trkpt lat="29.5250587" lon="105.0609283"><ele>297.06</ele><time>2026-05-08T18:43:55.000Z</time></trkpt>
        <trkpt lat="29.5250713" lon="105.0608474"><ele>298.33</ele><time>2026-05-08T18:44:03.000Z</time></trkpt>
        <trkpt lat="29.5250883" lon="105.0607509"><ele>299.52</ele><time>2026-05-08T18:44:23.000Z</time></trkpt>
        <trkpt lat="29.5251291" lon="105.0606483"><ele>299.94</ele><time>2026-05-08T18:44:35.000Z</time></trkpt>
        <trkpt lat="29.5252037" lon="105.0605639"><ele>301.01</ele><time>2026-05-08T18:44:51.000Z</time></trkpt>
        <trkpt lat="29.5252523" lon="105.0604674"><ele>302.47</ele><time>2026-05-08T18:45:05.000Z</time></trkpt>
        <trkpt lat="29.5252855" lon="105.0603635"><ele>304.07</ele><time>2026-05-08T18:45:13.000Z</time></trkpt>
        <trkpt lat="29.5253342" lon="105.0602743"><ele>305.1</ele><time>2026-05-08T18:45:21.000Z</time></trkpt>
        <trkpt lat="29.5253705" lon="105.0601669"><ele>306.83</ele><time>2026-05-08T18:45:31.000Z</time></trkpt>
        <trkpt lat="29.5253954" lon="105.060058"><ele>308.08</ele><time>2026-05-08T18:45:39.000Z</time></trkpt>
        <trkpt lat="29.5254318" lon="105.0599485"><ele>308.96</ele><time>2026-05-08T18:45:51.000Z</time></trkpt>
        <trkpt lat="29.5254788" lon="105.059838"><ele>311.88</ele><time>2026-05-08T18:46:05.000Z</time></trkpt>
        <trkpt lat="29.5255379" lon="105.0597354"><ele>314.97</ele><time>2026-05-08T18:46:23.000Z</time></trkpt>
        <trkpt lat="29.5255664" lon="105.0596262"><ele>318.12</ele><time>2026-05-08T18:46:35.000Z</time></trkpt>
        <trkpt lat="29.5255617" lon="105.0595211"><ele>319.56</ele><time>2026-05-08T18:46:43.000Z</time></trkpt>
        <trkpt lat="29.5255564" lon="105.059459"><ele>320.71</ele><time>2026-05-08T18:46:49.000Z</time></trkpt>
        <trkpt lat="29.5255617" lon="105.0593683"><ele>321.49</ele><time>2026-05-08T18:50:06.000Z</time></trkpt>
        <trkpt lat="29.5255453" lon="105.0592615"><ele>321.54</ele><time>2026-05-08T18:50:18.000Z</time></trkpt>
        <trkpt lat="29.5255112" lon="105.0591381"><ele>321.9</ele><time>2026-05-08T18:50:28.000Z</time></trkpt>
        <trkpt lat="29.5254913" lon="105.0590207"><ele>322.51</ele><time>2026-05-08T18:50:36.000Z</time></trkpt>
        <trkpt lat="29.52548" lon="105.0588988"><ele>322.84</ele><time>2026-05-08T18:50:44.000Z</time></trkpt>
        <trkpt lat="29.5254736" lon="105.0587763"><ele>323.11</ele><time>2026-05-08T18:50:52.000Z</time></trkpt>
        <trkpt lat="29.5254879" lon="105.0586603"><ele>323.36</ele><time>2026-05-08T18:51:00.000Z</time></trkpt>
        <trkpt lat="29.5255254" lon="105.0585608"><ele>323.56</ele><time>2026-05-08T18:51:10.000Z</time></trkpt>
        <trkpt lat="29.5255585" lon="105.0584413"><ele>323.83</ele><time>2026-05-08T18:51:26.000Z</time></trkpt>
        <trkpt lat="29.525591" lon="105.0583166"><ele>323.84</ele><time>2026-05-08T18:51:34.000Z</time></trkpt>
        <trkpt lat="29.5256262" lon="105.0582075"><ele>323.62</ele><time>2026-05-08T18:51:42.000Z</time></trkpt>
        <trkpt lat="29.5256854" lon="105.0581172"><ele>323.01</ele><time>2026-05-08T18:51:50.000Z</time></trkpt>
        <trkpt lat="29.5257284" lon="105.0580085"><ele>322.34</ele><time>2026-05-08T18:51:58.000Z</time></trkpt>
        <trkpt lat="29.5257386" lon="105.0578916"><ele>321.75</ele><time>2026-05-08T18:52:06.000Z</time></trkpt>
        <trkpt lat="29.5257702" lon="105.0577729"><ele>321.21</ele><time>2026-05-08T18:52:15.000Z</time></trkpt>
        <trkpt lat="29.5258142" lon="105.0576552"><ele>321.4</ele><time>2026-05-08T18:52:23.000Z</time></trkpt>
        <trkpt lat="29.5258351" lon="105.0575437"><ele>320.89</ele><time>2026-05-08T18:52:31.000Z</time></trkpt>
        <trkpt lat="29.5258341" lon="105.0574183"><ele>320.77</ele><time>2026-05-08T18:52:39.000Z</time></trkpt>
        <trkpt lat="29.5258165" lon="105.0573034"><ele>320.23</ele><time>2026-05-08T18:52:45.000Z</time></trkpt>
        <trkpt lat="29.5258046" lon="105.0571936"><ele>320.21</ele><time>2026-05-08T18:52:51.000Z</time></trkpt>
        <trkpt lat="29.5258095" lon="105.0570726"><ele>320.14</ele><time>2026-05-08T18:52:59.000Z</time></trkpt>
        <trkpt lat="29.52584" lon="105.0569486"><ele>319.97</ele><time>2026-05-08T18:53:07.000Z</time></trkpt>
        <trkpt lat="29.5258651" lon="105.0568337"><ele>319.62</ele><time>2026-05-08T18:53:14.000Z</time></trkpt>
        <trkpt lat="29.5259333" lon="105.0567401"><ele>319.42</ele><time>2026-05-08T18:53:18.000Z</time></trkpt>
        <trkpt lat="29.5260047" lon="105.0566483"><ele>320.07</ele><time>2026-05-08T18:53:22.000Z</time></trkpt>
        <trkpt lat="29.5260684" lon="105.0565651"><ele>320.54</ele><time>2026-05-08T18:53:28.000Z</time></trkpt>
        <trkpt lat="29.52616" lon="105.0565034"><ele>320.9</ele><time>2026-05-08T18:53:36.000Z</time></trkpt>
        <trkpt lat="29.5262454" lon="105.0564244"><ele>321.5</ele><time>2026-05-08T18:53:46.000Z</time></trkpt>
        <trkpt lat="29.5263221" lon="105.0563461"><ele>321.8</ele><time>2026-05-08T18:53:54.000Z</time></trkpt>
        <trkpt lat="29.5263976" lon="105.0562588"><ele>322.07</ele><time>2026-05-08T18:54:02.000Z</time></trkpt>
        <trkpt lat="29.5264629" lon="105.0561742"><ele>322.46</ele><time>2026-05-08T18:54:08.000Z</time></trkpt>
        <trkpt lat="29.5265365" lon="105.0560971"><ele>322.3</ele><time>2026-05-08T18:54:17.000Z</time></trkpt>
        <trkpt lat="29.5266207" lon="105.0560507"><ele>322.35</ele><time>2026-05-08T18:54:25.000Z</time></trkpt>
        <trkpt lat="29.5266556" lon="105.0560275"><ele>322.88</ele><time>2026-05-08T18:54:31.000Z</time></trkpt>
        <trkpt lat="29.5267141" lon="105.0559749"><ele>323.36</ele><time>2026-05-08T18:55:05.000Z</time></trkpt>
        <trkpt lat="29.5267708" lon="105.0559268"><ele>324.24</ele><time>2026-05-08T18:55:15.000Z</time></trkpt>
        <trkpt lat="29.526855" lon="105.0559335"><ele>325.33</ele><time>2026-05-08T18:56:15.000Z</time></trkpt>
        <trkpt lat="29.5269469" lon="105.0559473"><ele>326.06</ele><time>2026-05-08T18:56:25.000Z</time></trkpt>
        <trkpt lat="29.5270357" lon="105.0559677"><ele>327.06</ele><time>2026-05-08T18:56:35.000Z</time></trkpt>
        <trkpt lat="29.5271326" lon="105.0559759"><ele>328.65</ele><time>2026-05-08T19:03:08.000Z</time></trkpt>
        <trkpt lat="29.5271081" lon="105.0558446"><ele>329.24</ele><time>2026-05-08T19:03:16.000Z</time></trkpt>
        <trkpt lat="29.527089" lon="105.0552825"><ele>329.04</ele><time>2026-05-08T19:03:24.000Z</time></trkpt>
        <trkpt lat="29.5270219" lon="105.0550009"><ele>329.23</ele><time>2026-05-08T19:03:26.000Z</time></trkpt>
        <trkpt lat="29.5269308" lon="105.0548117"><ele>330.02</ele><time>2026-05-08T19:03:28.000Z</time></trkpt>
        <trkpt lat="29.5268479" lon="105.0546529"><ele>331.13</ele><time>2026-05-08T19:03:30.000Z</time></trkpt>
        <trkpt lat="29.5267852" lon="105.0545064"><ele>331.54</ele><time>2026-05-08T19:03:32.000Z</time></trkpt>
        <trkpt lat="29.5267745" lon="105.0543686"><ele>331.24</ele><time>2026-05-08T19:03:34.000Z</time></trkpt>
        <trkpt lat="29.5268433" lon="105.0542629"><ele>330.44</ele><time>2026-05-08T19:03:36.000Z</time></trkpt>
        <trkpt lat="29.5269817" lon="105.0541669"><ele>329.2</ele><time>2026-05-08T19:03:38.000Z</time></trkpt>
        <trkpt lat="29.5271561" lon="105.054073"><ele>327.39</ele><time>2026-05-08T19:03:40.000Z</time></trkpt>
        <trkpt lat="29.52731" lon="105.0539946"><ele>325.84</ele><time>2026-05-08T19:03:42.000Z</time></trkpt>
        <trkpt lat="29.5274088" lon="105.0538981"><ele>324.69</ele><time>2026-05-08T19:03:44.000Z</time></trkpt>
        <trkpt lat="29.5274482" lon="105.0537497"><ele>323.36</ele><time>2026-05-08T19:03:46.000Z</time></trkpt>
        <trkpt lat="29.5274229" lon="105.0535834"><ele>322.11</ele><time>2026-05-08T19:03:48.000Z</time></trkpt>
        <trkpt lat="29.5273113" lon="105.0534617"><ele>321.38</ele><time>2026-05-08T19:03:50.000Z</time></trkpt>
        <trkpt lat="29.527132" lon="105.0534063"><ele>321</ele><time>2026-05-08T19:03:52.000Z</time></trkpt>
        <trkpt lat="29.5269261" lon="105.0533911"><ele>320.93</ele><time>2026-05-08T19:03:54.000Z</time></trkpt>
        <trkpt lat="29.5267205" lon="105.0533642"><ele>321.62</ele><time>2026-05-08T19:03:56.000Z</time></trkpt>
        <trkpt lat="29.5265142" lon="105.0533357"><ele>322.24</ele><time>2026-05-08T19:03:58.000Z</time></trkpt>
        <trkpt lat="29.5263151" lon="105.0532941"><ele>322.76</ele><time>2026-05-08T19:04:00.000Z</time></trkpt>
        <trkpt lat="29.5261589" lon="105.0532122"><ele>323.08</ele><time>2026-05-08T19:04:02.000Z</time></trkpt>
        <trkpt lat="29.5260605" lon="105.0530652"><ele>323.55</ele><time>2026-05-08T19:04:04.000Z</time></trkpt>
        <trkpt lat="29.5260257" lon="105.0528393"><ele>323.44</ele><time>2026-05-08T19:04:06.000Z</time></trkpt>
        <trkpt lat="29.5260041" lon="105.0525588"><ele>323.19</ele><time>2026-05-08T19:04:08.000Z</time></trkpt>
        <trkpt lat="29.5259767" lon="105.0522775"><ele>323.02</ele><time>2026-05-08T19:04:10.000Z</time></trkpt>
        <trkpt lat="29.5259846" lon="105.0520203"><ele>323.18</ele><time>2026-05-08T19:04:12.000Z</time></trkpt>
        <trkpt lat="29.5260565" lon="105.0517832"><ele>323.43</ele><time>2026-05-08T19:04:14.000Z</time></trkpt>
        <trkpt lat="29.5261504" lon="105.0515564"><ele>323.57</ele><time>2026-05-08T19:04:16.000Z</time></trkpt>
        <trkpt lat="29.5262072" lon="105.051326"><ele>323.82</ele><time>2026-05-08T19:04:18.000Z</time></trkpt>
        <trkpt lat="29.5262052" lon="105.0510888"><ele>324.17</ele><time>2026-05-08T19:04:20.000Z</time></trkpt>
        <trkpt lat="29.5261797" lon="105.0508446"><ele>324.68</ele><time>2026-05-08T19:04:22.000Z</time></trkpt>
        <trkpt lat="29.5261708" lon="105.0506221"><ele>325.68</ele><time>2026-05-08T19:04:24.000Z</time></trkpt>
        <trkpt lat="29.5262053" lon="105.0504628"><ele>326.52</ele><time>2026-05-08T19:04:26.000Z</time></trkpt>
        <trkpt lat="29.5263168" lon="105.0503661"><ele>327.01</ele><time>2026-05-08T19:04:28.000Z</time></trkpt>
        <trkpt lat="29.5264674" lon="105.0502818"><ele>327.17</ele><time>2026-05-08T19:04:30.000Z</time></trkpt>
        <trkpt lat="29.5266074" lon="105.050146"><ele>327.54</ele><time>2026-05-08T19:04:32.000Z</time></trkpt>
        <trkpt lat="29.5267072" lon="105.0499622"><ele>327.34</ele><time>2026-05-08T19:04:34.000Z</time></trkpt>
        <trkpt lat="29.5267176" lon="105.0497684"><ele>327.08</ele><time>2026-05-08T19:04:36.000Z</time></trkpt>
        <trkpt lat="29.5266409" lon="105.0495778"><ele>327.12</ele><time>2026-05-08T19:04:38.000Z</time></trkpt>
        <trkpt lat="29.526589" lon="105.0493686"><ele>327.44</ele><time>2026-05-08T19:04:40.000Z</time></trkpt>
        <trkpt lat="29.526611" lon="105.0491676"><ele>328.3</ele><time>2026-05-08T19:04:42.000Z</time></trkpt>
        <trkpt lat="29.5266887" lon="105.0490439"><ele>329.26</ele><time>2026-05-08T19:04:44.000Z</time></trkpt>
        <trkpt lat="29.5268069" lon="105.0489782"><ele>329.94</ele><time>2026-05-08T19:04:48.000Z</time></trkpt>
        <trkpt lat="29.5269313" lon="105.0489593"><ele>330.02</ele><time>2026-05-08T19:04:50.000Z</time></trkpt>
        <trkpt lat="29.5271064" lon="105.0489724"><ele>329.77</ele><time>2026-05-08T19:04:52.000Z</time></trkpt>
        <trkpt lat="29.5273035" lon="105.0489823"><ele>329.18</ele><time>2026-05-08T19:04:54.000Z</time></trkpt>
        <trkpt lat="29.5274827" lon="105.0490133"><ele>328.69</ele><time>2026-05-08T19:04:56.000Z</time></trkpt>
        <trkpt lat="29.5276502" lon="105.0490967"><ele>328.31</ele><time>2026-05-08T19:04:58.000Z</time></trkpt>
        <trkpt lat="29.5278221" lon="105.0491658"><ele>327.83</ele><time>2026-05-08T19:05:00.000Z</time></trkpt>
        <trkpt lat="29.5280124" lon="105.0491479"><ele>326.8</ele><time>2026-05-08T19:05:02.000Z</time></trkpt>
        <trkpt lat="29.5282018" lon="105.0490464"><ele>326.26</ele><time>2026-05-08T19:05:04.000Z</time></trkpt>
        <trkpt lat="29.5283693" lon="105.048869"><ele>326.14</ele><time>2026-05-08T19:05:06.000Z</time></trkpt>
        <trkpt lat="29.5285226" lon="105.0486844"><ele>326.16</ele><time>2026-05-08T19:05:08.000Z</time></trkpt>
        <trkpt lat="29.5286819" lon="105.0485551"><ele>326.68</ele><time>2026-05-08T19:05:10.000Z</time></trkpt>
        <trkpt lat="29.5288535" lon="105.0485041"><ele>328.37</ele><time>2026-05-08T19:05:12.000Z</time></trkpt>
        <trkpt lat="29.5290558" lon="105.0485021"><ele>330.62</ele><time>2026-05-08T19:05:14.000Z</time></trkpt>
        <trkpt lat="29.5292567" lon="105.0485082"><ele>333.69</ele><time>2026-05-08T19:05:16.000Z</time></trkpt>
        <trkpt lat="29.5294221" lon="105.0484584"><ele>337.16</ele><time>2026-05-08T19:05:18.000Z</time></trkpt>
        <trkpt lat="29.5295377" lon="105.0483135"><ele>339.94</ele><time>2026-05-08T19:05:20.000Z</time></trkpt>
        <trkpt lat="29.5296495" lon="105.0481304"><ele>342.17</ele><time>2026-05-08T19:05:22.000Z</time></trkpt>
        <trkpt lat="29.5297766" lon="105.0479474"><ele>343.9</ele><time>2026-05-08T19:05:24.000Z</time></trkpt>
        <trkpt lat="29.5298795" lon="105.0477384"><ele>345.31</ele><time>2026-05-08T19:05:26.000Z</time></trkpt>
        <trkpt lat="29.5299571" lon="105.0474809"><ele>346.54</ele><time>2026-05-08T19:05:28.000Z</time></trkpt>
        <trkpt lat="29.5300223" lon="105.0472237"><ele>348.17</ele><time>2026-05-08T19:05:30.000Z</time></trkpt>
        <trkpt lat="29.5300841" lon="105.046995"><ele>350.47</ele><time>2026-05-08T19:05:32.000Z</time></trkpt>
        <trkpt lat="29.5301423" lon="105.0467984"><ele>352.45</ele><time>2026-05-08T19:05:34.000Z</time></trkpt>
        <trkpt lat="29.5301912" lon="105.0466499"><ele>353.77</ele><time>2026-05-08T19:05:36.000Z</time></trkpt>
        <trkpt lat="29.5302323" lon="105.0465463"><ele>354.63</ele><time>2026-05-08T19:05:38.000Z</time></trkpt>
        <trkpt lat="29.53029" lon="105.0464161"><ele>355.22</ele><time>2026-05-08T19:05:40.000Z</time></trkpt>
        <trkpt lat="29.5303719" lon="105.0462354"><ele>355.87</ele><time>2026-05-08T19:05:42.000Z</time></trkpt>
        <trkpt lat="29.5304698" lon="105.0460724"><ele>356.76</ele><time>2026-05-08T19:05:44.000Z</time></trkpt>
        <trkpt lat="29.5306007" lon="105.0459689"><ele>358.52</ele><time>2026-05-08T19:05:46.000Z</time></trkpt>
        <trkpt lat="29.530745" lon="105.0459315"><ele>360.18</ele><time>2026-05-08T19:05:48.000Z</time></trkpt>
        <trkpt lat="29.5308665" lon="105.04592"><ele>361.67</ele><time>2026-05-08T19:05:50.000Z</time></trkpt>
        <trkpt lat="29.530971" lon="105.0459063"><ele>362.8</ele><time>2026-05-08T19:05:52.000Z</time></trkpt>
        <trkpt lat="29.5310434" lon="105.0458525"><ele>363.59</ele><time>2026-05-08T19:05:54.000Z</time></trkpt>
        <trkpt lat="29.5310673" lon="105.0457419"><ele>364.26</ele><time>2026-05-08T19:05:56.000Z</time></trkpt>
        <trkpt lat="29.5311067" lon="105.0456057"><ele>365.41</ele><time>2026-05-08T19:05:58.000Z</time></trkpt>
        <trkpt lat="29.5311836" lon="105.045508"><ele>366.92</ele><time>2026-05-08T19:06:00.000Z</time></trkpt>
        <trkpt lat="29.5313" lon="105.0454398"><ele>368.53</ele><time>2026-05-08T19:06:02.000Z</time></trkpt>
        <trkpt lat="29.5314198" lon="105.0453516"><ele>369.85</ele><time>2026-05-08T19:06:04.000Z</time></trkpt>
        <trkpt lat="29.5315607" lon="105.0452682"><ele>371.65</ele><time>2026-05-08T19:06:06.000Z</time></trkpt>
        <trkpt lat="29.5317196" lon="105.0451663"><ele>373.83</ele><time>2026-05-08T19:06:08.000Z</time></trkpt>
        <trkpt lat="29.5318557" lon="105.0450522"><ele>376.86</ele><time>2026-05-08T19:06:10.000Z</time></trkpt>
        <trkpt lat="29.5319332" lon="105.0449535"><ele>380.52</ele><time>2026-05-08T19:06:12.000Z</time></trkpt>
        <trkpt lat="29.5319184" lon="105.0448422"><ele>383.45</ele><time>2026-05-08T19:06:14.000Z</time></trkpt>
        <trkpt lat="29.5318351" lon="105.0447157"><ele>385.88</ele><time>2026-05-08T19:06:16.000Z</time></trkpt>
        <trkpt lat="29.5317709" lon="105.0446025"><ele>388.76</ele><time>2026-05-08T19:06:18.000Z</time></trkpt>
        <trkpt lat="29.5317127" lon="105.0445084"><ele>391.25</ele><time>2026-05-08T19:06:22.000Z</time></trkpt>
        <trkpt lat="29.5317127" lon="105.0445084"><ele>391.25</ele><time>2026-05-08T19:06:28.000Z</time></trkpt>
        <trkpt lat="29.5317127" lon="105.0445084"><ele>391.25</ele><time>2026-05-08T19:06:42.000Z</time></trkpt>
        <trkpt lat="29.5317127" lon="105.0445084"><ele>391.25</ele><time>2026-05-08T19:07:07.000Z</time></trkpt>
      </trkseg>
  </trk>
</gpx>